West Chester, Ohio
Current Conditions -  °F | °C
As of 12:53 AM on Wednesday 28 Jan 2015 (Local Time) from KHAO Reporting Station
Haze Haze  
Wind Chill: -11°   Ceiling: Unl
Heat Index: -11°   Visibility: 5mi
Dew Point: -13°   Wind: 0mph
Humidity: 88%   Direction: NA
Pressure: 30.27"   Gusts: NA
Location:  39.33°N, 84.4°W
Report Text: KHAO 280553Z AUTO 00000KT 5SM BR CLR M11/M13 A3027 RMK AO2 SLP262 I1000 I6000 T11111128 11056 21111 52003
Loading
Personal Weather Stations






























Interactive Weather Map New forecast layout! Learn more

10-Day Weather Forecast

Advertisements
Track Severe Weather on mobile